NDF4TP EDDH-ENCN
Flight info
| Callsign | NDF4TP |
|---|---|
| Flight time | 0h 51m |
| Altitude | 35000 |
| Route | SOKWO1B SOKWO T814 EXNEL M105 AMRAK DCT AMSEV AMSEV2L |
| Aircraft | CRJ9/M-SDFGIRWY/S |
Departure
| Time | 2026-05-04 09:58 |
|---|---|
| Airport | Hamburg Helmut Schmidt Airport (EDDH) |
Arrival
| Time | 2026-05-04 10:49 |
|---|---|
| Airport | Kristiansand Airport (ENCN) |
| Time | Latitude | Longitude | Altitude | Speed | Heading |
|---|---|---|---|---|---|
| 2026-05-04 09:18 | 53.63152 | 10.00097 | 47 ft | 0 kts | 140° |
| 2026-05-04 09:51 | 53.63243 | 10.00131 | 47 ft | 4 kts | 246° |
| 2026-05-04 09:51 | 53.63253 | 10.00173 | 47 ft | 4 kts | 244° |
| 2026-05-04 09:51 | 53.63268 | 10.00204 | 47 ft | 4 kts | 205° |
| 2026-05-04 09:51 | 53.63274 | 10.00207 | 47 ft | 1 kts | 176° |
| 2026-05-04 09:53 | 53.63266 | 10.00208 | 47 ft | 4 kts | 176° |
| 2026-05-04 09:53 | 53.63220 | 10.00213 | 47 ft | 8 kts | 176° |
| 2026-05-04 09:54 | 53.63158 | 10.00221 | 47 ft | 10 kts | 176° |
| 2026-05-04 09:54 | 53.63077 | 10.00222 | 47 ft | 12 kts | 193° |
| 2026-05-04 09:54 | 53.63009 | 10.00160 | 44 ft | 11 kts | 212° |
| 2026-05-04 09:54 | 53.62945 | 10.00091 | 45 ft | 10 kts | 213° |
| 2026-05-04 09:55 | 53.62886 | 10.00039 | 47 ft | 10 kts | 201° |
| 2026-05-04 09:55 | 53.62843 | 9.99957 | 46 ft | 10 kts | 243° |
| 2026-05-04 09:55 | 53.62813 | 9.99857 | 44 ft | 7 kts | 243° |
| 2026-05-04 09:55 | 53.62813 | 9.99798 | 43 ft | 2 kts | 314° |
| 2026-05-04 09:56 | 53.62821 | 9.99789 | 43 ft | 1 kts | 330° |
| 2026-05-04 09:56 | 53.62821 | 9.99788 | 43 ft | 0 kts | 330° |
| 2026-05-04 09:57 | 53.62841 | 9.99770 | 43 ft | 19 kts | 332° |
| 2026-05-04 09:57 | 53.63196 | 9.99462 | 45 ft | 94 kts | 333° |
| 2026-05-04 09:57 | 53.63969 | 9.98790 | 51 ft | 152 kts | 333° |
| 2026-05-04 09:58 | 53.64953 | 9.97956 | 655 ft | 157 kts | 330° |
| 2026-05-04 09:58 | 53.65941 | 9.97152 | 1396 ft | 160 kts | 330° |
| 2026-05-04 09:58 | 53.66954 | 9.96283 | 2050 ft | 172 kts | 329° |
| 2026-05-04 10:00 | 53.77064 | 9.98369 | 6461 ft | 274 kts | 32° |
| 2026-05-04 10:00 | 53.78660 | 10.00265 | 7040 ft | 286 kts | 32° |
| 2026-05-04 10:02 | 53.91956 | 10.11536 | 11295 ft | 338 kts | 343° |
| 2026-05-04 10:04 | 54.08520 | 10.03994 | 16105 ft | 366 kts | 341° |
| 2026-05-04 10:04 | 54.10923 | 10.02632 | 16707 ft | 361 kts | 324° |
| 2026-05-04 10:04 | 54.12895 | 10.00079 | 17317 ft | 356 kts | 312° |
| 2026-05-04 10:04 | 54.14607 | 9.97039 | 17919 ft | 356 kts | 306° |
| 2026-05-04 10:05 | 54.16205 | 9.93863 | 18479 ft | 358 kts | 305° |
| 2026-05-04 10:05 | 54.17819 | 9.90613 | 19009 ft | 361 kts | 305° |
| 2026-05-04 10:05 | 54.19457 | 9.87338 | 19535 ft | 363 kts | 305° |
| 2026-05-04 10:05 | 54.21134 | 9.84093 | 20046 ft | 366 kts | 306° |
| 2026-05-04 10:06 | 54.22835 | 9.80837 | 20550 ft | 368 kts | 306° |
| 2026-05-04 10:06 | 54.24592 | 9.77612 | 21018 ft | 374 kts | 311° |
| 2026-05-04 10:06 | 54.26640 | 9.74790 | 21483 ft | 382 kts | 317° |
| 2026-05-04 10:08 | 54.41191 | 9.62673 | 23933 ft | 431 kts | 358° |
| 2026-05-04 10:08 | 54.44190 | 9.63441 | 24261 ft | 439 kts | 6° |
| 2026-05-04 10:08 | 54.47187 | 9.64580 | 24571 ft | 442 kts | 7° |
| 2026-05-04 10:08 | 54.50194 | 9.65753 | 24884 ft | 444 kts | 6° |
| 2026-05-04 10:09 | 54.53223 | 9.66860 | 25183 ft | 445 kts | 5° |
| 2026-05-04 10:09 | 54.56273 | 9.67856 | 25490 ft | 446 kts | 4° |
| 2026-05-04 10:09 | 54.59335 | 9.68797 | 25774 ft | 449 kts | 4° |
| 2026-05-04 10:09 | 54.62410 | 9.69769 | 26103 ft | 450 kts | 4° |
| 2026-05-04 10:10 | 54.65488 | 9.70720 | 26520 ft | 448 kts | 3° |
| 2026-05-04 10:10 | 54.68553 | 9.71551 | 26795 ft | 449 kts | 1° |
| 2026-05-04 10:10 | 54.71654 | 9.72307 | 27071 ft | 450 kts | 1° |
| 2026-05-04 10:10 | 54.74760 | 9.73098 | 27332 ft | 452 kts | 2° |
| 2026-05-04 10:11 | 54.77879 | 9.73898 | 27566 ft | 454 kts | 1° |
| 2026-05-04 10:11 | 54.81009 | 9.74674 | 27812 ft | 453 kts | 358° |
| 2026-05-04 10:11 | 54.84116 | 9.74623 | 28031 ft | 444 kts | 347° |
| 2026-05-04 10:11 | 54.87113 | 9.73880 | 28253 ft | 439 kts | 341° |
| 2026-05-04 10:12 | 54.90107 | 9.72819 | 28540 ft | 439 kts | 341° |
| 2026-05-04 10:12 | 54.93092 | 9.71725 | 28771 ft | 441 kts | 342° |
| 2026-05-04 10:12 | 54.96111 | 9.70717 | 28987 ft | 444 kts | 343° |
| 2026-05-04 10:12 | 54.99156 | 9.69785 | 29196 ft | 445 kts | 343° |
| 2026-05-04 10:13 | 55.02214 | 9.68838 | 29407 ft | 446 kts | 343° |
| 2026-05-04 10:13 | 55.05273 | 9.67879 | 29598 ft | 448 kts | 343° |
| 2026-05-04 10:13 | 55.08345 | 9.66916 | 29793 ft | 449 kts | 343° |
| 2026-05-04 10:13 | 55.11423 | 9.65957 | 29977 ft | 450 kts | 343° |
| 2026-05-04 10:14 | 55.14509 | 9.64988 | 30151 ft | 451 kts | 344° |
| 2026-05-04 10:14 | 55.17601 | 9.64022 | 30313 ft | 452 kts | 344° |
| 2026-05-04 10:16 | 55.39400 | 9.57136 | 31676 ft | 448 kts | 344° |
| 2026-05-04 10:16 | 55.42448 | 9.56166 | 32082 ft | 443 kts | 344° |
| 2026-05-04 10:16 | 55.45468 | 9.55205 | 32460 ft | 439 kts | 344° |
| 2026-05-04 10:16 | 55.48460 | 9.54251 | 32842 ft | 434 kts | 344° |
| 2026-05-04 10:17 | 55.51415 | 9.53307 | 33224 ft | 429 kts | 344° |
| 2026-05-04 10:17 | 55.54338 | 9.52374 | 33615 ft | 424 kts | 344° |
| 2026-05-04 10:19 | 55.74149 | 9.46127 | 34943 ft | 418 kts | 344° |
| 2026-05-04 10:19 | 55.77028 | 9.45204 | 34954 ft | 422 kts | 344° |
| 2026-05-04 10:19 | 55.82862 | 9.43319 | 34968 ft | 430 kts | 344° |
| 2026-05-04 10:20 | 55.88798 | 9.41385 | 34977 ft | 438 kts | 344° |
| 2026-05-04 10:20 | 55.94851 | 9.39412 | 34994 ft | 446 kts | 345° |
| 2026-05-04 10:21 | 56.00011 | 9.37716 | 34972 ft | 453 kts | 345° |
| 2026-05-04 10:21 | 56.06223 | 9.35687 | 34963 ft | 460 kts | 345° |
| 2026-05-04 10:22 | 56.15768 | 9.32536 | 34964 ft | 469 kts | 345° |
| 2026-05-04 10:23 | 56.22219 | 9.30401 | 34949 ft | 474 kts | 345° |
| 2026-05-04 10:25 | 56.48523 | 9.21625 | 34943 ft | 484 kts | 345° |
| 2026-05-04 10:25 | 56.55106 | 9.19408 | 34938 ft | 477 kts | 345° |
| 2026-05-04 10:26 | 56.61600 | 9.17213 | 34738 ft | 474 kts | 345° |
| 2026-05-04 10:26 | 56.64830 | 9.16121 | 34212 ft | 471 kts | 345° |
| 2026-05-04 10:26 | 56.68045 | 9.15022 | 33661 ft | 469 kts | 345° |
| 2026-05-04 10:26 | 56.71247 | 9.13930 | 33070 ft | 468 kts | 345° |
| 2026-05-04 10:27 | 56.74455 | 9.12844 | 32484 ft | 469 kts | 345° |
| 2026-05-04 10:27 | 56.77664 | 9.11753 | 31938 ft | 469 kts | 345° |
| 2026-05-04 10:27 | 56.80863 | 9.10657 | 31404 ft | 468 kts | 345° |
| 2026-05-04 10:27 | 56.84070 | 9.09551 | 30866 ft | 467 kts | 345° |
| 2026-05-04 10:28 | 56.87257 | 9.08465 | 30322 ft | 466 kts | 345° |
| 2026-05-04 10:28 | 56.90439 | 9.07368 | 29776 ft | 465 kts | 345° |
| 2026-05-04 10:28 | 56.93618 | 9.06277 | 29157 ft | 463 kts | 345° |
| 2026-05-04 10:28 | 56.96774 | 9.05185 | 28556 ft | 460 kts | 345° |
| 2026-05-04 10:29 | 56.99910 | 9.04106 | 27969 ft | 458 kts | 345° |
| 2026-05-04 10:29 | 57.03015 | 9.03030 | 27409 ft | 456 kts | 345° |
| 2026-05-04 10:29 | 57.06125 | 9.01955 | 26885 ft | 454 kts | 345° |
| 2026-05-04 10:29 | 57.09226 | 9.00874 | 26351 ft | 453 kts | 344° |
| 2026-05-04 10:30 | 57.12321 | 8.99796 | 25815 ft | 452 kts | 344° |
| 2026-05-04 10:30 | 57.15409 | 8.98715 | 25298 ft | 451 kts | 344° |
| 2026-05-04 10:30 | 57.18491 | 8.97643 | 24778 ft | 451 kts | 344° |
| 2026-05-04 10:30 | 57.21537 | 8.96580 | 24300 ft | 451 kts | 344° |
| 2026-05-04 10:31 | 57.24614 | 8.95494 | 23799 ft | 450 kts | 344° |
| 2026-05-04 10:31 | 57.27737 | 8.94402 | 23292 ft | 451 kts | 344° |
| 2026-05-04 10:32 | 57.45713 | 8.88057 | 20078 ft | 422 kts | 343° |
| 2026-05-04 10:33 | 57.48579 | 8.87042 | 19589 ft | 417 kts | 343° |
| 2026-05-04 10:33 | 57.51415 | 8.86035 | 19106 ft | 413 kts | 343° |
| 2026-05-04 10:33 | 57.54223 | 8.85037 | 18647 ft | 409 kts | 343° |
| 2026-05-04 10:33 | 57.57005 | 8.84037 | 18195 ft | 405 kts | 343° |
| 2026-05-04 10:34 | 57.59755 | 8.83054 | 17681 ft | 402 kts | 343° |
| 2026-05-04 10:34 | 57.62487 | 8.82081 | 17220 ft | 399 kts | 343° |
| 2026-05-04 10:34 | 57.64945 | 8.81209 | 16776 ft | 396 kts | 343° |
| 2026-05-04 10:34 | 57.67594 | 8.80017 | 16283 ft | 386 kts | 333° |
| 2026-05-04 10:35 | 57.69516 | 8.78321 | 15929 ft | 379 kts | 326° |
| 2026-05-04 10:35 | 57.71769 | 8.75842 | 15494 ft | 374 kts | 323° |
| 2026-05-04 10:35 | 57.73536 | 8.73782 | 15145 ft | 371 kts | 323° |
| 2026-05-04 10:35 | 57.75719 | 8.71229 | 14725 ft | 369 kts | 322° |
| 2026-05-04 10:36 | 57.77896 | 8.68722 | 14315 ft | 367 kts | 324° |
| 2026-05-04 10:36 | 57.80088 | 8.66292 | 13910 ft | 365 kts | 324° |
| 2026-05-04 10:36 | 57.82267 | 8.63869 | 13487 ft | 363 kts | 324° |
| 2026-05-04 10:36 | 57.84111 | 8.61470 | 13081 ft | 356 kts | 316° |
| 2026-05-04 10:37 | 57.84569 | 8.60735 | 12978 ft | 354 kts | 314° |
| 2026-05-04 10:37 | 57.84993 | 8.60015 | 12877 ft | 353 kts | 313° |
| 2026-05-04 10:37 | 57.85401 | 8.59293 | 12781 ft | 352 kts | 312° |
| 2026-05-04 10:37 | 57.86979 | 8.56318 | 12384 ft | 348 kts | 310° |
| 2026-05-04 10:39 | 57.96589 | 8.37212 | 9987 ft | 331 kts | 291° |
| 2026-05-04 10:39 | 57.96937 | 8.33538 | 9610 ft | 328 kts | 267° |
| 2026-05-04 10:39 | 57.96717 | 8.31283 | 9381 ft | 328 kts | 254° |
| 2026-05-04 10:40 | 57.95919 | 8.27269 | 8932 ft | 327 kts | 252° |
| 2026-05-04 10:40 | 57.95634 | 8.23128 | 8442 ft | 314 kts | 274° |
| 2026-05-04 10:40 | 57.95807 | 8.19105 | 8003 ft | 303 kts | 275° |
| 2026-05-04 10:40 | 57.95974 | 8.15208 | 7581 ft | 294 kts | 275° |
| 2026-05-04 10:41 | 57.96165 | 8.11423 | 7170 ft | 287 kts | 276° |
| 2026-05-04 10:41 | 57.96365 | 8.07735 | 6775 ft | 279 kts | 277° |
| 2026-05-04 10:41 | 57.96592 | 8.04192 | 6387 ft | 266 kts | 278° |
| 2026-05-04 10:41 | 57.97128 | 8.00980 | 5975 ft | 253 kts | 303° |
| 2026-05-04 10:42 | 57.98169 | 7.98418 | 5641 ft | 240 kts | 308° |
| 2026-05-04 10:42 | 57.99440 | 7.96526 | 5271 ft | 233 kts | 338° |
| 2026-05-04 10:42 | 58.00937 | 7.95614 | 4952 ft | 220 kts | 327° |
| 2026-05-04 10:42 | 58.01836 | 7.93480 | 4674 ft | 208 kts | 289° |
| 2026-05-04 10:43 | 58.02213 | 7.90920 | 4430 ft | 198 kts | 291° |
| 2026-05-04 10:44 | 58.09254 | 7.93812 | 3063 ft | 178 kts | 30° |
| 2026-05-04 10:45 | 58.10251 | 7.95140 | 2803 ft | 174 kts | 29° |
| 2026-05-04 10:45 | 58.11249 | 7.96399 | 2628 ft | 172 kts | 27° |
| 2026-05-04 10:45 | 58.12197 | 7.97715 | 2375 ft | 166 kts | 33° |
| 2026-05-04 10:45 | 58.13116 | 7.98978 | 2047 ft | 161 kts | 29° |
| 2026-05-04 10:46 | 58.13999 | 8.00124 | 1824 ft | 147 kts | 25° |
| 2026-05-04 10:46 | 58.14815 | 8.01176 | 1591 ft | 142 kts | 25° |
| 2026-05-04 10:46 | 58.15639 | 8.02216 | 1413 ft | 142 kts | 27° |
| 2026-05-04 10:46 | 58.16470 | 8.03265 | 1100 ft | 147 kts | 30° |
| 2026-05-04 10:47 | 58.17315 | 8.04411 | 837 ft | 148 kts | 30° |
| 2026-05-04 10:47 | 58.18143 | 8.05524 | 528 ft | 148 kts | 30° |
| 2026-05-04 10:47 | 58.19002 | 8.06656 | 308 ft | 147 kts | 31° |
| 2026-05-04 10:47 | 58.19835 | 8.07758 | 67 ft | 143 kts | 33° |
| 2026-05-04 10:49 | 58.20973 | 8.09268 | 55 ft | 22 kts | 215° |
| 2026-05-04 10:49 | 58.20830 | 8.09078 | 57 ft | 29 kts | 215° |
| 2026-05-04 10:50 | 58.20663 | 8.08857 | 57 ft | 26 kts | 215° |
| 2026-05-04 10:51 | 58.20290 | 8.07707 | 55 ft | 0 kts | 257° |
| 2026-05-04 10:52 | 58.20290 | 8.07697 | 53 ft | 0 kts | 277° |
| 2026-05-04 10:52 | 58.20296 | 8.07679 | 54 ft | 6 kts | 308° |
| 2026-05-04 10:52 | 58.20308 | 8.07642 | 56 ft | 0 kts | 301° |